createdAt,value
2022-11-03T00:02:13.165Z,15.70
2022-11-03T00:05:22.708Z,15.80
2022-11-03T00:11:05.144Z,15.70
2022-11-03T00:13:54.220Z,15.70
2022-11-03T00:16:46.181Z,15.80
2022-11-03T00:19:35.242Z,15.80
2022-11-03T00:22:24.455Z,15.60
2022-11-03T00:25:13.452Z,15.60
2022-11-03T00:30:53.150Z,15.80
2022-11-03T00:33:44.222Z,15.70
2022-11-03T00:36:35.801Z,15.70
2022-11-03T00:39:24.916Z,15.70
2022-11-03T00:42:13.985Z,15.60
2022-11-03T00:45:03.567Z,15.50
2022-11-03T00:48:14.136Z,15.60
2022-11-03T00:51:11.236Z,15.60
2022-11-03T00:54:03.207Z,15.70
2022-11-03T00:56:53.129Z,15.80
2022-11-03T00:59:42.295Z,15.70
2022-11-03T01:02:31.996Z,15.70
2022-11-03T01:05:38.242Z,15.80
2022-11-03T01:08:34.240Z,15.80
2022-11-03T01:11:42.430Z,15.70
2022-11-03T01:14:35.300Z,15.70
2022-11-03T01:17:26.448Z,15.70
2022-11-03T01:20:15.601Z,15.80
2022-11-03T01:23:05.268Z,15.80
2022-11-03T01:25:56.142Z,15.90
2022-11-03T01:28:46.905Z,15.90
2022-11-03T01:31:36.296Z,15.90
2022-11-03T01:34:25.866Z,15.90
2022-11-03T01:37:15.462Z,16.00
2022-11-03T01:40:04.531Z,16.00
2022-11-03T01:42:55.148Z,16.00
2022-11-03T01:45:44.689Z,16.00
2022-11-03T01:48:36.192Z,16.00
2022-11-03T01:51:26.600Z,16.00
2022-11-03T01:54:19.911Z,16.00
2022-11-03T01:57:12.893Z,16.00
2022-11-03T02:00:04.922Z,16.00
2022-11-03T02:02:55.129Z,16.00
2022-11-03T02:05:47.809Z,16.00
2022-11-03T02:08:39.896Z,16.00
2022-11-03T02:11:46.099Z,16.00
2022-11-03T02:14:35.701Z,16.10
2022-11-03T02:17:28.932Z,16.10
2022-11-03T02:20:21.937Z,16.10
2022-11-03T02:23:27.672Z,16.00
2022-11-03T02:26:18.533Z,16.00
2022-11-03T02:29:07.605Z,16.00
2022-11-03T02:32:07.905Z,16.00
2022-11-03T02:35:03.879Z,16.00
2022-11-03T02:37:57.355Z,16.00
2022-11-03T02:40:50.828Z,16.10
2022-11-03T02:43:43.079Z,16.10
2022-11-03T02:46:34.759Z,16.10
2022-11-03T02:49:23.922Z,16.00
2022-11-03T02:52:38.600Z,16.10
2022-11-03T02:55:36.141Z,16.10
2022-11-03T02:58:32.604Z,16.10
2022-11-03T03:01:28.211Z,16.10
2022-11-03T03:04:23.677Z,16.10
2022-11-03T03:07:17.073Z,16.10
2022-11-03T03:10:09.896Z,16.10
2022-11-03T03:13:00.436Z,16.10
2022-11-03T03:15:57.769Z,16.20
2022-11-03T03:18:53.284Z,16.10
2022-11-03T03:21:46.900Z,16.10
2022-11-03T03:24:41.497Z,16.10
2022-11-03T03:27:34.011Z,16.10
2022-11-03T03:30:23.426Z,16.10
2022-11-03T03:33:14.761Z,16.10
2022-11-03T03:36:09.451Z,16.00
2022-11-03T03:39:02.086Z,16.00
2022-11-03T03:41:50.819Z,16.00
2022-11-03T03:44:43.804Z,16.00
2022-11-03T03:47:36.359Z,16.00
2022-11-03T03:50:26.819Z,15.80
2022-11-03T03:53:19.999Z,15.70
2022-11-03T03:56:09.208Z,15.40
2022-11-03T03:58:58.626Z,15.30
2022-11-03T04:01:47.996Z,15.30
2022-11-03T04:04:37.372Z,15.30
2022-11-03T04:07:44.039Z,15.20
2022-11-03T04:10:34.643Z,15.30
2022-11-03T04:13:41.007Z,15.50
2022-11-03T04:16:47.108Z,15.50
2022-11-03T04:19:53.512Z,15.50
2022-11-03T04:22:42.758Z,15.40
2022-11-03T04:25:31.595Z,15.40
2022-11-03T04:28:22.202Z,15.40
2022-11-03T04:31:13.504Z,15.30
2022-11-03T04:34:02.624Z,15.30
2022-11-03T04:36:51.430Z,15.40
2022-11-03T04:39:41.128Z,15.50
2022-11-03T04:42:34.585Z,15.60
2022-11-03T04:45:32.899Z,15.60
2022-11-03T04:48:23.736Z,15.60
2022-11-03T04:51:16.626Z,15.50
2022-11-03T04:54:15.246Z,15.40
2022-11-03T04:57:10.141Z,15.40
2022-11-03T04:59:59.455Z,15.30
2022-11-03T05:02:55.844Z,15.30
2022-11-03T05:05:45.633Z,15.20
2022-11-03T05:08:35.055Z,15.10
2022-11-03T05:11:30.666Z,15.20
2022-11-03T05:14:22.796Z,15.30
2022-11-03T05:17:22.873Z,15.40
2022-11-03T05:20:35.739Z,15.40
2022-11-03T05:23:25.455Z,15.30
2022-11-03T05:26:18.837Z,15.30
2022-11-03T05:29:16.202Z,15.30
2022-11-03T05:32:06.413Z,15.40
2022-11-03T05:34:57.296Z,15.50
2022-11-03T05:37:48.553Z,15.50
2022-11-03T05:40:38.028Z,15.50
2022-11-03T05:43:29.405Z,15.50
2022-11-03T05:46:18.182Z,15.50
2022-11-03T05:49:09.414Z,15.50
2022-11-03T05:51:58.927Z,15.50
2022-11-03T05:54:50.157Z,15.50
2022-11-03T05:57:39.423Z,15.50
2022-11-03T06:00:31.916Z,15.50
2022-11-03T06:03:26.472Z,15.50
2022-11-03T06:06:22.497Z,15.50
2022-11-03T06:09:14.783Z,15.50
2022-11-03T06:12:08.599Z,15.60
2022-11-03T06:14:57.966Z,15.50
2022-11-03T06:17:47.012Z,15.40
2022-11-03T06:20:36.629Z,15.30
2022-11-03T07:17:52.767Z,15.50
2022-11-03T07:20:42.246Z,15.50
2022-11-03T07:23:32.935Z,15.60
2022-11-03T07:26:21.852Z,15.60
2022-11-03T07:29:17.536Z,15.60
2022-11-03T07:32:14.428Z,15.60
2022-11-03T07:35:25.763Z,15.60
2022-11-03T07:38:17.671Z,15.60
2022-11-03T07:41:08.168Z,15.70
2022-11-03T07:43:58.782Z,15.80
2022-11-03T07:46:48.534Z,15.80
2022-11-03T07:49:38.085Z,15.90
2022-11-03T07:52:29.168Z,15.90
2022-11-03T07:55:18.418Z,15.90
2022-11-03T07:58:27.583Z,15.70
2022-11-03T08:01:26.759Z,15.70
2022-11-03T08:04:20.467Z,15.80
2022-11-03T08:07:09.427Z,15.80
2022-11-03T08:09:59.789Z,15.80
2022-11-03T08:12:49.059Z,15.80
2022-11-03T08:15:38.417Z,15.80
2022-11-03T08:18:27.945Z,15.80
2022-11-03T08:21:17.496Z,15.90
2022-11-03T08:24:07.653Z,16.00
2022-11-03T08:26:57.966Z,16.00
2022-11-03T08:29:47.251Z,16.00
2022-11-03T08:32:36.445Z,16.00
2022-11-03T08:35:28.773Z,16.20
2022-11-03T08:38:20.735Z,16.20
2022-11-03T08:41:09.753Z,16.20
2022-11-03T08:44:00.206Z,16.30
2022-11-03T08:46:49.880Z,16.20
2022-11-03T08:49:38.441Z,16.20
2022-11-03T08:52:27.471Z,16.20
2022-11-03T08:55:16.104Z,16.20
2022-11-03T08:58:05.856Z,16.30
2022-11-03T09:00:56.720Z,16.30
2022-11-03T09:03:46.596Z,16.30
2022-11-03T09:06:35.780Z,16.30
2022-11-03T09:12:34.370Z,16.30
2022-11-03T09:15:23.108Z,16.30
2022-11-03T09:18:13.679Z,16.50
2022-11-03T09:21:02.255Z,16.50
2022-11-03T09:23:51.064Z,16.50
2022-11-03T09:26:40.329Z,16.50
2022-11-03T09:29:36.364Z,16.50
2022-11-03T09:32:35.176Z,16.30
2022-11-03T09:35:25.091Z,16.20
2022-11-03T09:38:13.911Z,16.30
2022-11-03T09:41:06.696Z,16.40
2022-11-03T09:44:03.050Z,16.30
2022-11-03T09:46:56.917Z,16.40
2022-11-03T09:49:47.583Z,16.40
2022-11-03T09:52:38.683Z,16.40
2022-11-03T09:55:29.390Z,16.30
2022-11-03T09:58:19.481Z,16.30
2022-11-03T10:01:11.515Z,16.40
2022-11-03T10:04:02.758Z,16.50
2022-11-03T10:06:51.355Z,16.60
2022-11-03T10:09:46.816Z,16.60
2022-11-03T10:12:39.286Z,16.60
2022-11-03T10:15:29.300Z,16.50
2022-11-03T10:18:19.057Z,16.50
2022-11-03T10:21:13.141Z,16.70
2022-11-03T10:24:02.152Z,16.70
2022-11-03T10:26:54.766Z,16.70
2022-11-03T10:29:48.462Z,16.70
2022-11-03T10:32:42.483Z,16.60
2022-11-03T10:35:36.308Z,16.80
2022-11-03T10:38:28.815Z,16.70
2022-11-03T10:41:20.204Z,16.60
2022-11-03T10:44:20.607Z,16.70
2022-11-03T10:47:24.911Z,16.70
2022-11-03T10:50:24.084Z,16.70
2022-11-03T10:53:19.463Z,16.70
2022-11-03T10:56:09.185Z,16.70
2022-11-03T10:58:59.929Z,16.80
2022-11-03T11:01:51.265Z,16.70
2022-11-03T11:04:40.909Z,16.80
2022-11-03T11:07:36.415Z,16.80
2022-11-03T11:10:27.312Z,16.90
2022-11-03T11:13:27.703Z,16.90
2022-11-03T11:16:52.878Z,16.90
2022-11-03T11:20:18.566Z,16.90
2022-11-03T11:23:41.735Z,16.90
2022-11-03T11:26:34.101Z,17.00
2022-11-03T11:29:46.405Z,17.00
2022-11-03T11:36:06.626Z,17.30
2022-11-03T11:38:59.946Z,17.40
2022-11-03T11:42:08.311Z,17.60
2022-11-03T11:45:03.081Z,17.80
2022-11-03T11:50:41.721Z,18.00
2022-11-03T11:53:38.594Z,18.00
2022-11-03T11:56:27.837Z,18.10
2022-11-03T11:59:25.125Z,18.10
2022-11-03T12:02:22.178Z,18.10
2022-11-03T12:05:21.522Z,18.10
2022-11-03T12:08:20.007Z,18.00
2022-11-03T12:11:15.165Z,17.90
2022-11-03T12:14:04.479Z,17.90
2022-11-03T12:16:54.021Z,17.90
2022-11-03T12:19:45.016Z,17.90
2022-11-03T12:22:44.070Z,17.80
2022-11-03T12:25:40.235Z,17.70
2022-11-03T12:28:38.023Z,17.80
2022-11-03T12:31:26.624Z,17.80
2022-11-03T12:34:15.664Z,17.80
2022-11-03T12:37:05.225Z,17.80
2022-11-03T12:39:54.971Z,17.80
2022-11-03T12:42:44.044Z,17.90
2022-11-03T12:45:34.907Z,18.00
2022-11-03T12:48:23.536Z,18.10
2022-11-03T12:51:16.207Z,18.20
2022-11-03T12:54:05.826Z,18.20
2022-11-03T12:56:55.264Z,18.10
2022-11-03T12:59:44.864Z,18.10
2022-11-03T13:02:35.355Z,18.00
2022-11-03T13:05:25.721Z,18.00
2022-11-03T13:08:14.588Z,18.00
2022-11-03T13:11:03.706Z,18.00
2022-11-03T13:13:53.364Z,18.10
2022-11-03T13:45:19.762Z,18.10
2022-11-03T13:51:19.169Z,18.10
2022-11-03T14:00:26.463Z,17.80
2022-11-03T14:06:26.645Z,17.80
2022-11-03T14:09:16.598Z,17.90
2022-11-03T14:12:22.932Z,17.80
2022-11-03T14:15:13.422Z,17.90
2022-11-03T14:18:02.569Z,17.80
2022-11-03T14:20:53.000Z,17.80
2022-11-03T14:23:42.569Z,17.80
2022-11-03T14:26:46.904Z,17.80
2022-11-03T14:29:35.997Z,17.70
2022-11-03T14:32:25.513Z,17.80
2022-11-03T14:35:14.594Z,17.70
2022-11-03T14:38:05.215Z,17.70
2022-11-03T14:41:11.749Z,17.60
2022-11-03T14:44:00.906Z,17.60
2022-11-03T14:46:50.131Z,17.60
2022-11-03T14:49:39.460Z,17.60
2022-11-03T14:52:29.186Z,17.60
2022-11-03T14:55:20.462Z,17.60
2022-11-03T14:58:09.836Z,17.60
2022-11-03T15:00:59.086Z,17.60
2022-11-03T15:03:48.824Z,17.50
2022-11-03T15:06:37.482Z,17.50
2022-11-03T15:09:27.011Z,17.50
2022-11-03T15:12:17.594Z,17.60
2022-11-03T15:15:07.413Z,17.50
2022-11-03T15:18:01.634Z,17.60
2022-11-03T15:20:52.444Z,17.50
2022-11-03T15:26:51.791Z,17.50
2022-11-03T15:29:42.727Z,17.50
2022-11-03T15:32:36.310Z,17.50
2022-11-03T15:35:25.852Z,17.40
2022-11-03T15:38:14.813Z,17.40
2022-11-03T15:41:19.508Z,17.40
2022-11-03T15:44:09.228Z,17.40
2022-11-03T15:46:59.900Z,17.40
2022-11-03T15:49:48.956Z,17.30
2022-11-03T15:52:38.330Z,17.30
2022-11-03T15:55:27.482Z,17.30
2022-11-03T15:58:17.671Z,17.20
2022-11-03T16:01:07.546Z,17.20
2022-11-03T16:03:58.670Z,17.20
2022-11-03T16:07:08.676Z,17.20
2022-11-03T16:09:57.966Z,17.20
2022-11-03T16:12:47.450Z,17.20
2022-11-03T16:15:37.200Z,17.20
2022-11-03T16:18:26.173Z,17.20
2022-11-03T16:21:16.937Z,17.10
2022-11-03T16:24:05.963Z,17.10
2022-11-03T16:26:56.253Z,17.10
2022-11-03T16:29:45.288Z,17.00
2022-11-03T16:32:34.384Z,17.00
2022-11-03T16:35:23.666Z,17.00
2022-11-03T16:38:15.493Z,17.00
2022-11-03T16:41:04.407Z,17.00
2022-11-03T16:43:53.499Z,17.00
2022-11-03T16:46:42.958Z,17.00
2022-11-03T16:49:31.548Z,17.00
2022-11-03T16:52:20.845Z,17.00
2022-11-03T16:55:12.423Z,17.00
2022-11-03T16:58:01.961Z,17.00
2022-11-03T17:00:51.361Z,17.00
2022-11-03T17:03:40.294Z,17.00
2022-11-03T17:06:29.334Z,17.00
2022-11-03T17:09:18.458Z,17.00
2022-11-03T17:12:09.500Z,16.90
2022-11-03T17:14:59.245Z,16.90
2022-11-03T17:17:48.164Z,16.90
2022-11-03T17:20:36.846Z,16.90
2022-11-03T17:23:25.635Z,16.90
2022-11-03T17:26:16.324Z,16.90
2022-11-03T17:29:06.902Z,16.90
2022-11-03T17:31:55.861Z,16.90
2022-11-03T17:34:45.258Z,16.90
2022-11-03T17:37:36.648Z,16.90
2022-11-03T17:40:27.281Z,16.90
2022-11-03T17:43:21.500Z,16.90
2022-11-03T17:46:12.172Z,16.80
2022-11-03T17:49:01.870Z,16.80
2022-11-03T17:51:50.782Z,16.80
2022-11-03T17:54:40.264Z,16.80
2022-11-03T17:57:30.016Z,16.80
2022-11-03T18:00:23.255Z,16.80
2022-11-03T18:03:16.670Z,16.80
2022-11-03T18:06:15.507Z,16.80
2022-11-03T18:09:05.579Z,16.80
2022-11-03T18:12:12.399Z,16.80
2022-11-03T18:15:03.442Z,16.80
2022-11-03T18:17:53.096Z,16.80
2022-11-03T18:20:52.931Z,16.80
2022-11-03T18:23:43.139Z,16.80
2022-11-03T18:26:31.984Z,16.70
2022-11-03T18:29:21.349Z,16.70
2022-11-03T18:32:16.783Z,16.70
2022-11-03T18:35:07.076Z,16.70
2022-11-03T18:37:58.218Z,16.70
2022-11-03T18:40:47.766Z,16.70
2022-11-03T18:43:37.082Z,16.70
2022-11-03T18:46:26.829Z,16.70
2022-11-03T18:49:18.029Z,16.70
2022-11-03T18:52:13.238Z,16.70
2022-11-03T18:55:03.416Z,16.70
2022-11-03T18:57:53.290Z,16.70
2022-11-03T19:00:42.871Z,16.70
2022-11-03T19:03:31.946Z,16.70
2022-11-03T19:06:22.001Z,16.70
2022-11-03T19:09:14.023Z,16.70
2022-11-03T19:12:05.143Z,16.60
2022-11-03T19:14:54.076Z,16.60
2022-11-03T19:17:43.184Z,16.60
2022-11-03T19:20:32.381Z,16.60
2022-11-03T19:23:21.984Z,16.60
2022-11-03T19:26:20.131Z,16.60
2022-11-03T19:29:13.209Z,16.60
2022-11-03T19:32:03.822Z,16.50
2022-11-03T19:34:59.249Z,16.50
2022-11-03T19:37:50.769Z,16.50
2022-11-03T19:41:00.957Z,16.50
2022-11-03T19:43:50.046Z,16.50
2022-11-03T20:11:15.338Z,16.40
2022-11-03T20:14:04.735Z,16.40
2022-11-03T20:16:55.052Z,16.40
2022-11-03T20:19:44.729Z,16.50
2022-11-03T20:22:33.950Z,16.50
2022-11-03T20:25:25.670Z,16.50
2022-11-03T20:28:20.887Z,16.50
2022-11-03T20:31:11.888Z,16.50
2022-11-03T20:34:01.628Z,16.50
2022-11-03T20:36:50.843Z,16.50
2022-11-03T20:39:40.457Z,16.50
2022-11-03T20:42:29.855Z,16.50
2022-11-03T20:45:22.339Z,16.50
2022-11-03T20:48:13.422Z,16.50
2022-11-03T20:51:02.502Z,16.50
2022-11-03T20:53:51.711Z,16.50
2022-11-03T20:56:41.096Z,16.50
2022-11-03T20:59:33.239Z,16.40
2022-11-03T21:02:26.995Z,16.40
2022-11-03T21:05:17.800Z,16.40
2022-11-03T21:08:06.981Z,16.40
2022-11-03T21:11:16.645Z,16.50
2022-11-03T21:14:14.368Z,16.50
2022-11-03T21:17:20.617Z,16.50
2022-11-03T21:20:12.473Z,16.50
2022-11-03T21:23:01.949Z,16.50
2022-11-03T21:25:51.559Z,16.50
2022-11-03T21:28:42.553Z,16.50
2022-11-03T21:31:31.539Z,16.40
2022-11-03T21:34:20.451Z,16.40
2022-11-03T21:37:14.060Z,16.40
2022-11-03T21:40:03.342Z,16.40
2022-11-03T21:43:09.987Z,16.40
2022-11-03T21:46:06.364Z,16.40
2022-11-03T21:49:12.841Z,16.50
2022-11-03T21:52:01.529Z,16.50
2022-11-03T21:54:52.311Z,16.50
2022-11-03T21:57:41.546Z,16.50
2022-11-03T22:00:31.023Z,16.50
2022-11-03T22:03:20.478Z,16.50
2022-11-03T22:06:11.610Z,16.40
2022-11-03T22:09:01.192Z,16.40
2022-11-03T22:11:52.172Z,16.40
2022-11-03T22:14:58.245Z,16.40
2022-11-03T22:17:47.564Z,16.50
2022-11-03T22:20:55.355Z,16.40
2022-11-03T22:24:01.065Z,16.40
2022-11-03T22:26:57.726Z,16.40
2022-11-03T22:30:04.276Z,16.40
2022-11-03T22:32:55.160Z,16.40
2022-11-03T22:36:01.001Z,16.40
2022-11-03T22:39:07.168Z,16.40
2022-11-03T22:42:15.185Z,16.40
2022-11-03T22:45:21.659Z,16.40
2022-11-03T22:48:12.742Z,16.40
2022-11-03T22:51:03.816Z,16.40
2022-11-03T22:54:09.891Z,16.40
2022-11-03T22:57:00.500Z,16.40
2022-11-03T22:59:49.570Z,16.40
2022-11-03T23:02:38.352Z,16.40
2022-11-03T23:05:27.721Z,16.40
2022-11-03T23:08:17.192Z,16.40
2022-11-03T23:11:08.526Z,16.40
2022-11-03T23:14:00.189Z,16.40
2022-11-03T23:16:49.543Z,16.30
2022-11-03T23:19:55.970Z,16.30
2022-11-03T23:22:46.066Z,16.30
2022-11-03T23:25:34.337Z,16.30
2022-11-03T23:28:23.808Z,16.30
2022-11-03T23:31:14.886Z,16.30
2022-11-03T23:34:03.904Z,16.40
2022-11-03T23:36:54.025Z,16.40
2022-11-03T23:39:43.054Z,16.40
2022-11-03T23:42:32.176Z,16.40
2022-11-03T23:45:38.503Z,16.40
2022-11-03T23:48:46.114Z,16.50
2022-11-03T23:51:36.757Z,16.50
2022-11-03T23:54:27.474Z,16.40
2022-11-03T23:57:34.503Z,16.50
